Time;durP1;ratioP1;P1;durP2;ratioP2;P2;SDS_P1;SDS_P2;PMS_P1;PMS_P2;Temp;Humidity;BMP_temperature;BMP_pressure;BME280_temperature;BME280_humidity;BME280_pressure;Samples;Min_cycle;Max_cycle;Signal;HPM_P1;HPM_P2
2021/10/11 00:00:57;;;;;;;12.20;5.45;;;;;;;;;;143729;570;45021;-54
2021/10/11 00:03:25;;;;;;;7.22;4.45;;;;;;;;;;143730;619;46020;-54
2021/10/11 00:05:52;;;;;;;8.82;4.43;;;;;;;;;;143728;620;46022;-54
2021/10/11 00:08:19;;;;;;;9.27;4.85;;;;;;;;;;143726;571;46020;-54
2021/10/11 00:10:51;;;;;;;10.05;4.12;;;;;;;;;;143727;587;46012;-55
2021/10/11 00:13:20;;;;;;;11.40;4.75;;;;;;;;;;143731;623;46020;-54
2021/10/11 00:15:47;;;;;;;8.20;4.37;;;;;;;;;;143729;576;46023;-55
2021/10/11 00:18:14;;;;;;;12.70;4.75;;;;;;;;;;143726;618;46020;-54
2021/10/11 00:20:42;;;;;;;6.25;4.25;;;;;;;;;;143727;566;46012;-54
2021/10/11 00:23:10;;;;;;;9.95;4.50;;;;;;;;;;143732;633;45020;-55
2021/10/11 00:25:37;;;;;;;7.43;4.37;;;;;;;;;;143727;569;46022;-55
2021/10/11 00:28:04;;;;;;;8.95;4.12;;;;;;;;;;143727;622;46021;-54
2021/10/11 00:30:32;;;;;;;8.73;4.57;;;;;;;;;;143727;579;46014;-55
2021/10/11 00:32:59;;;;;;;7.55;4.30;;;;;;;;;;143733;617;46020;-55
2021/10/11 00:35:26;;;;;;;11.48;4.65;;;;;;;;;;143728;623;46021;-54
2021/10/11 00:37:53;;;;;;;10.68;5.05;;;;;;;;;;143726;621;46020;-55
2021/10/11 00:40:20;;;;;;;6.05;4.47;;;;;;;;;;143728;622;46012;-55
2021/10/11 00:42:47;;;;;;;8.43;4.65;;;;;;;;;;143733;700;45021;-54
2021/10/11 00:45:14;;;;;;;12.20;4.62;;;;;;;;;;143727;580;46052;-55
2021/10/11 00:47:41;;;;;;;7.68;3.95;;;;;;;;;;143725;580;46020;-54
2021/10/11 00:50:09;;;;;;;9.30;4.18;;;;;;;;;;143728;623;46012;-55
2021/10/11 00:52:36;;;;;;;13.60;4.18;;;;;;;;;;143731;643;46012;-55
2021/10/11 00:55:04;;;;;;;7.78;4.43;;;;;;;;;;143727;581;46022;-55
2021/10/11 00:57:31;;;;;;;5.78;4.22;;;;;;;;;;143727;581;46021;-55
2021/10/11 00:59:58;;;;;;;10.68;4.35;;;;;;;;;;143729;570;45021;-54
2021/10/11 01:02:25;;;;;;;7.65;4.12;;;;;;;;;;143733;638;46020;-54
2021/10/11 01:04:52;;;;;;;11.05;4.37;;;;;;;;;;143727;691;46022;-54
2021/10/11 01:07:19;;;;;;;6.50;3.87;;;;;;;;;;143724;642;46020;-55
2021/10/11 01:09:46;;;;;;;6.00;3.83;;;;;;;;;;143730;565;45020;-54
2021/10/11 01:12:13;;;;;;;7.60;4.25;;;;;;;;;;143733;589;46012;-54
2021/10/11 01:14:40;;;;;;;7.90;4.10;;;;;;;;;;143725;599;46023;-54
2021/10/11 01:17:08;;;;;;;7.93;4.12;;;;;;;;;;143725;630;46028;-54
2021/10/11 01:19:38;;;;;;;6.85;4.12;;;;;;;;;;143728;589;46013;-54
2021/10/11 01:22:05;;;;;;;6.95;3.85;;;;;;;;;;143731;649;46021;-55
2021/10/11 01:24:32;;;;;;;7.90;3.80;;;;;;;;;;143729;838;46020;-54
2021/10/11 01:27:00;;;;;;;12.07;4.07;;;;;;;;;;143727;655;46021;-55
2021/10/11 01:29:27;;;;;;;8.32;4.25;;;;;;;;;;143730;628;45021;-54
2021/10/11 01:31:54;;;;;;;11.10;4.47;;;;;;;;;;143731;698;46012;-55
2021/10/11 01:34:21;;;;;;;9.90;4.28;;;;;;;;;;143727;580;46022;-54
2021/10/11 01:36:48;;;;;;;11.27;4.93;;;;;;;;;;143730;585;46020;-55
2021/10/11 01:39:15;;;;;;;7.65;4.25;;;;;;;;;;143726;576;46020;-54
2021/10/11 01:41:42;;;;;;;7.78;4.20;;;;;;;;;;143732;574;45020;-54
2021/10/11 01:44:09;;;;;;;8.57;4.18;;;;;;;;;;143728;617;46021;-54
2021/10/11 01:46:36;;;;;;;9.65;4.20;;;;;;;;;;143725;589;46020;-55
2021/10/11 01:49:04;;;;;;;6.85;4.50;;;;;;;;;;143731;564;45030;-54
2021/10/11 01:51:32;;;;;;;9.70;4.25;;;;;;;;;;143729;766;46021;-54
2021/10/11 01:53:59;;;;;;;6.90;4.68;;;;;;;;;;143728;594;46022;-55
2021/10/11 01:56:26;;;;;;;7.32;4.00;;;;;;;;;;143731;625;46020;-55
2021/10/11 01:58:53;;;;;;;7.68;4.05;;;;;;;;;;143728;626;46012;-55
2021/10/11 02:01:20;;;;;;;13.98;4.30;;;;;;;;;;143731;623;46020;-55
2021/10/11 02:03:47;;;;;;;10.98;4.90;;;;;;;;;;143725;584;47022;-55
2021/10/11 02:06:15;;;;;;;12.00;5.32;;;;;;;;;;143724;620;47012;-54
2021/10/11 02:08:41;;;;;;;7.87;4.43;;;;;;;;;;143726;594;46012;-55
2021/10/11 02:11:08;;;;;;;5.50;4.22;;;;;;;;;;143730;723;46020;-54
2021/10/11 02:13:35;;;;;;;9.20;4.57;;;;;;;;;;143729;616;46023;-54
2021/10/11 02:16:03;;;;;;;10.00;4.35;;;;;;;;;;143725;587;46020;-55
2021/10/11 02:18:30;;;;;;;9.32;4.35;;;;;;;;;;143729;608;46012;-55
2021/10/11 02:20:57;;;;;;;8.80;3.85;;;;;;;;;;143730;566;46021;-54
2021/10/11 02:23:24;;;;;;;8.70;4.20;;;;;;;;;;143728;571;46020;-54
2021/10/11 02:25:51;;;;;;;7.47;4.68;;;;;;;;;;143728;573;46020;-54
2021/10/11 02:28:18;;;;;;;6.22;3.97;;;;;;;;;;143728;631;46012;-54
2021/10/11 02:30:45;;;;;;;7.15;4.12;;;;;;;;;;143730;584;46020;-54
2021/10/11 02:33:12;;;;;;;6.80;4.22;;;;;;;;;;143727;569;46022;-54
2021/10/11 02:35:39;;;;;;;9.57;4.55;;;;;;;;;;143725;591;46021;-54
2021/10/11 02:38:06;;;;;;;14.82;6.30;;;;;;;;;;143730;755;45020;-54
2021/10/11 02:40:35;;;;;;;13.93;5.47;;;;;;;;;;143730;587;46012;-54
2021/10/11 02:43:03;;;;;;;9.15;4.95;;;;;;;;;;143726;615;46023;-53
2021/10/11 02:45:30;;;;;;;9.05;5.28;;;;;;;;;;143727;581;46020;-54
2021/10/11 02:47:57;;;;;;;9.23;5.53;;;;;;;;;;143730;635;45021;-54
2021/10/11 02:50:24;;;;;;;13.90;6.40;;;;;;;;;;143731;573;46021;-54
2021/10/11 02:52:51;;;;;;;13.15;6.03;;;;;;;;;;143727;585;46043;-54
2021/10/11 02:55:18;;;;;;;12.18;5.60;;;;;;;;;;143725;622;46020;-54
2021/10/11 02:57:45;;;;;;;12.82;6.60;;;;;;;;;;143728;585;46012;-55
2021/10/11 03:00:13;;;;;;;20.42;7.60;;;;;;;;;;143729;613;46020;-54
2021/10/11 03:02:40;;;;;;;26.50;8.43;;;;;;;;;;143728;580;46020;-54
2021/10/11 03:05:07;;;;;;;13.55;6.37;;;;;;;;;;143727;761;46020;-54
2021/10/11 03:07:34;;;;;;;12.35;5.93;;;;;;;;;;143728;645;46012;-54
2021/10/11 03:10:01;;;;;;;10.27;6.05;;;;;;;;;;143730;686;46020;-54
2021/10/11 03:12:28;;;;;;;17.05;7.45;;;;;;;;;;143728;574;46023;-54
2021/10/11 03:14:55;;;;;;;16.90;7.30;;;;;;;;;;143725;589;46020;-53
2021/10/11 03:17:22;;;;;;;12.65;6.87;;;;;;;;;;143728;635;46012;-54
2021/10/11 03:19:49;;;;;;;12.00;6.65;;;;;;;;;;143731;570;46021;-53
2021/10/11 03:22:16;;;;;;;8.02;4.97;;;;;;;;;;143728;578;46023;-54
2021/10/11 03:24:43;;;;;;;11.27;5.93;;;;;;;;;;143725;708;46020;-54
2021/10/11 03:27:10;;;;;;;15.30;6.60;;;;;;;;;;143727;569;46012;-53
2021/10/11 03:29:37;;;;;;;14.45;7.07;;;;;;;;;;143730;580;46012;-55
2021/10/11 03:32:05;;;;;;;8.93;5.65;;;;;;;;;;143726;595;46022;-53
2021/10/11 03:34:32;;;;;;;14.05;6.28;;;;;;;;;;143725;638;46021;-53
2021/10/11 03:36:59;;;;;;;11.93;6.85;;;;;;;;;;143729;600;46012;-53
2021/10/11 03:39:26;;;;;;;13.45;7.00;;;;;;;;;;143730;598;46012;-54
2021/10/11 03:41:53;;;;;;;14.35;6.12;;;;;;;;;;143728;584;46022;-53
2021/10/11 03:44:20;;;;;;;11.43;6.15;;;;;;;;;;143725;609;46020;-54
2021/10/11 03:46:47;;;;;;;12.77;6.37;;;;;;;;;;143730;579;45033;-54
2021/10/11 03:49:14;;;;;;;13.30;7.00;;;;;;;;;;143731;570;46021;-55
2021/10/11 03:51:41;;;;;;;17.37;6.55;;;;;;;;;;143728;606;46023;-55
2021/10/11 03:54:09;;;;;;;22.17;6.32;;;;;;;;;;143727;611;46020;-54
2021/10/11 03:56:36;;;;;;;11.12;5.87;;;;;;;;;;143728;635;46012;-55
2021/10/11 03:59:03;;;;;;;9.23;4.90;;;;;;;;;;143733;626;45021;-55
2021/10/11 04:01:30;;;;;;;9.07;4.53;;;;;;;;;;143728;630;46022;-55
2021/10/11 04:03:57;;;;;;;8.75;4.55;;;;;;;;;;143725;607;46021;-54
2021/10/11 04:06:24;;;;;;;8.88;5.20;;;;;;;;;;143728;645;46012;-54
2021/10/11 04:08:51;;;;;;;11.18;5.07;;;;;;;;;;143733;661;45026;-55
2021/10/11 04:13:53;;;;;;;7.72;5.22;;;;;;;;;;143729;634;46020;-54
2021/10/11 04:16:20;;;;;;;8.85;4.70;;;;;;;;;;143730;577;46014;-54
2021/10/11 04:18:47;;;;;;;6.57;3.92;;;;;;;;;;143733;582;45021;-54
2021/10/11 04:21:14;;;;;;;12.27;4.62;;;;;;;;;;143728;581;46022;-55
2021/10/11 04:23:41;;;;;;;9.52;3.95;;;;;;;;;;143726;571;46020;-55
2021/10/11 04:26:09;;;;;;;7.57;4.43;;;;;;;;;;143731;659;45021;-54
2021/10/11 04:28:36;;;;;;;9.43;5.07;;;;;;;;;;143732;578;46012;-55
2021/10/11 04:31:03;;;;;;;9.02;5.60;;;;;;;;;;143728;613;46022;-54
2021/10/11 04:33:30;;;;;;;9.90;5.90;;;;;;;;;;143725;592;46021;-54
2021/10/11 04:35:57;;;;;;;11.07;5.65;;;;;;;;;;143730;576;45022;-54
2021/10/11 04:38:24;;;;;;;8.90;5.47;;;;;;;;;;143732;603;45018;-54
2021/10/11 04:40:51;;;;;;;9.60;5.45;;;;;;;;;;143727;610;46022;-54
2021/10/11 04:43:18;;;;;;;10.98;5.80;;;;;;;;;;143725;569;46917;-55
2021/10/11 04:45:46;;;;;;;13.35;5.95;;;;;;;;;;143728;585;46012;-55
2021/10/11 04:48:13;;;;;;;9.05;5.47;;;;;;;;;;143733;589;45021;-53
2021/10/11 04:50:40;;;;;;;11.80;5.65;;;;;;;;;;143728;573;46022;-55
2021/10/11 04:53:09;;;;;;;15.05;6.87;;;;;;;;;;143727;608;46020;-55
2021/10/11 04:55:36;;;;;;;11.10;6.07;;;;;;;;;;143728;621;46013;-54
2021/10/11 04:58:03;;;;;;;13.95;6.00;;;;;;;;;;143733;590;45020;-55
2021/10/11 05:00:30;;;;;;;8.93;5.07;;;;;;;;;;143728;566;46022;-54
2021/10/11 05:02:58;;;;;;;11.20;5.65;;;;;;;;;;143726;608;46021;-55
2021/10/11 05:05:25;;;;;;;9.57;5.65;;;;;;;;;;143729;599;46012;-55
2021/10/11 05:07:52;;;;;;;8.43;4.87;;;;;;;;;;143731;629;46033;-54
2021/10/11 05:10:19;;;;;;;7.93;4.90;;;;;;;;;;143727;569;46022;-54
2021/10/11 05:12:46;;;;;;;9.23;4.78;;;;;;;;;;143727;629;46020;-55
2021/10/11 05:15:13;;;;;;;9.23;4.93;;;;;;;;;;143730;607;45912;-55
2021/10/11 05:17:40;;;;;;;12.05;5.43;;;;;;;;;;143732;570;46013;-55
2021/10/11 05:20:07;;;;;;;6.68;4.75;;;;;;;;;;143728;624;46052;-54
2021/10/11 05:22:34;;;;;;;11.65;6.65;;;;;;;;;;143725;569;46020;-54
2021/10/11 05:25:01;;;;;;;12.10;7.57;;;;;;;;;;143729;597;45021;-54
2021/10/11 05:27:29;;;;;;;8.07;4.72;;;;;;;;;;143733;589;45020;-55
2021/10/11 05:29:56;;;;;;;10.43;5.60;;;;;;;;;;143727;565;47020;-55
2021/10/11 05:32:23;;;;;;;7.43;4.68;;;;;;;;;;143730;634;46021;-54
2021/10/11 05:34:50;;;;;;;9.35;4.50;;;;;;;;;;143729;613;46012;-54
2021/10/11 05:37:17;;;;;;;7.22;4.65;;;;;;;;;;143732;566;46020;-54
2021/10/11 05:39:45;;;;;;;8.15;4.40;;;;;;;;;;143726;590;46022;-55
2021/10/11 05:42:12;;;;;;;6.65;4.12;;;;;;;;;;143727;633;46020;-54
2021/10/11 05:44:39;;;;;;;6.32;4.10;;;;;;;;;;143728;570;46012;-55
2021/10/11 05:47:06;;;;;;;13.20;5.25;;;;;;;;;;143733;577;46020;-54
2021/10/11 05:49:33;;;;;;;12.60;6.10;;;;;;;;;;143729;612;46023;-53
2021/10/11 05:52:00;;;;;;;10.45;4.93;;;;;;;;;;143726;701;46020;-54
2021/10/11 05:54:27;;;;;;;9.00;5.53;;;;;;;;;;143729;567;46012;-54
2021/10/11 05:56:55;;;;;;;10.40;6.53;;;;;;;;;;143733;565;46021;-55
2021/10/11 05:59:22;;;;;;;16.92;7.72;;;;;;;;;;143729;646;46022;-55
2021/10/11 06:01:50;;;;;;;14.50;6.18;;;;;;;;;;143729;638;46021;-54
2021/10/11 06:04:17;;;;;;;14.98;8.60;;;;;;;;;;143730;634;46021;-54
2021/10/11 06:06:44;;;;;;;17.83;8.20;;;;;;;;;;143732;594;46012;-55
2021/10/11 06:09:11;;;;;;;13.50;8.15;;;;;;;;;;143729;603;46022;-55
2021/10/11 06:11:39;;;;;;;15.30;8.07;;;;;;;;;;143727;639;46020;-54
2021/10/11 06:14:06;;;;;;;14.80;8.02;;;;;;;;;;143729;577;46012;-53
2021/10/11 06:16:33;;;;;;;12.07;6.60;;;;;;;;;;143730;619;46021;-54
2021/10/11 06:19:00;;;;;;;14.20;7.50;;;;;;;;;;143728;675;46051;-54
2021/10/11 06:21:28;;;;;;;13.70;7.53;;;;;;;;;;143729;633;46020;-54
2021/10/11 06:23:55;;;;;;;11.70;5.37;;;;;;;;;;143730;632;46013;-54
2021/10/11 06:26:23;;;;;;;8.73;4.60;;;;;;;;;;143730;566;46021;-55
2021/10/11 06:28:50;;;;;;;12.57;4.95;;;;;;;;;;143729;634;46052;-53
2021/10/11 06:31:17;;;;;;;7.15;5.28;;;;;;;;;;143728;571;46020;-54
2021/10/11 06:33:44;;;;;;;10.05;4.70;;;;;;;;;;143730;641;46012;-54
2021/10/11 06:36:12;;;;;;;10.75;5.47;;;;;;;;;;143735;616;46020;-54
2021/10/11 06:38:39;;;;;;;10.52;5.85;;;;;;;;;;143730;628;46022;-54
2021/10/11 06:41:06;;;;;;;12.50;5.47;;;;;;;;;;143727;581;46021;-54
2021/10/11 06:43:33;;;;;;;8.60;5.15;;;;;;;;;;143730;602;46012;-54
2021/10/11 06:46:00;;;;;;;8.00;5.07;;;;;;;;;;143733;564;46020;-54
2021/10/11 06:48:28;;;;;;;10.70;5.75;;;;;;;;;;143729;580;46047;-54
2021/10/11 06:50:54;;;;;;;9.85;5.68;;;;;;;;;;143727;614;46020;-55
2021/10/11 06:53:22;;;;;;;12.82;5.62;;;;;;;;;;143731;568;46012;-54
2021/10/11 06:55:49;;;;;;;14.52;6.85;;;;;;;;;;143733;677;46021;-55
2021/10/11 06:58:16;;;;;;;21.27;10.30;;;;;;;;;;143730;635;46022;-55
2021/10/11 07:00:43;;;;;;;21.27;11.57;;;;;;;;;;143728;824;46020;-55
2021/10/11 07:03:10;;;;;;;26.17;13.43;;;;;;;;;;143729;571;46012;-54
2021/10/11 07:05:37;;;;;;;20.80;10.98;;;;;;;;;;143734;774;45032;-55
2021/10/11 07:08:09;;;;;;;25.60;13.65;;;;;;;;;;143728;821;46022;-54
2021/10/11 07:10:36;;;;;;;22.73;12.98;;;;;;;;;;143729;600;46021;-55
2021/10/11 07:13:04;;;;;;;17.98;9.50;;;;;;;;;;143731;565;45020;-54
2021/10/11 07:15:31;;;;;;;10.80;6.25;;;;;;;;;;143734;579;45020;-55
2021/10/11 07:17:58;;;;;;;8.93;3.60;;;;;;;;;;143728;588;46023;-55
2021/10/11 07:20:25;;;;;;;11.65;4.95;;;;;;;;;;143727;586;46020;-54
2021/10/11 07:22:52;;;;;;;7.43;4.60;;;;;;;;;;143730;798;46012;-54
2021/10/11 07:25:19;;;;;;;9.45;5.12;;;;;;;;;;143733;565;46021;-55
2021/10/11 07:27:46;;;;;;;8.60;5.10;;;;;;;;;;143729;610;46022;-55
2021/10/11 07:30:13;;;;;;;15.05;5.60;;;;;;;;;;143729;594;46020;-55
2021/10/11 07:32:40;;;;;;;14.38;6.75;;;;;;;;;;143731;607;45021;-55
2021/10/11 07:35:07;;;;;;;14.32;7.50;;;;;;;;;;143734;578;45020;-55
2021/10/11 07:37:34;;;;;;;18.80;9.40;;;;;;;;;;143730;585;46022;-55
2021/10/11 07:40:01;;;;;;;15.48;7.85;;;;;;;;;;143727;611;46021;-54
2021/10/11 07:42:28;;;;;;;19.55;6.72;;;;;;;;;;143730;595;46012;-54
2021/10/11 07:44:55;;;;;;;12.00;7.15;;;;;;;;;;143733;580;46020;-55
2021/10/11 07:47:22;;;;;;;11.15;6.78;;;;;;;;;;143728;616;47020;-55
2021/10/11 07:49:50;;;;;;;13.18;5.57;;;;;;;;;;143725;579;46020;-55
2021/10/11 07:52:17;;;;;;;14.48;6.25;;;;;;;;;;143729;582;46012;-54
2021/10/11 07:54:44;;;;;;;9.93;4.90;;;;;;;;;;143733;605;46012;-55
2021/10/11 07:57:11;;;;;;;15.10;5.68;;;;;;;;;;143729;636;46022;-54
2021/10/11 07:59:38;;;;;;;11.65;6.22;;;;;;;;;;143726;579;46020;-54
2021/10/11 08:02:05;;;;;;;11.18;4.80;;;;;;;;;;143731;572;45031;-54
2021/10/11 08:04:32;;;;;;;14.68;5.32;;;;;;;;;;143732;617;46032;-54
2021/10/11 08:06:59;;;;;;;10.30;4.93;;;;;;;;;;143728;622;47020;-54
2021/10/11 08:09:26;;;;;;;14.95;4.43;;;;;;;;;;143727;589;46021;-54
2021/10/11 08:11:53;;;;;;;9.80;5.12;;;;;;;;;;143729;618;47020;-54
2021/10/11 08:14:20;;;;;;;6.32;3.25;;;;;;;;;;143732;579;46020;-54
2021/10/11 08:16:47;;;;;;;7.15;3.78;;;;;;;;;;143728;594;46022;-54
2021/10/11 08:19:14;;;;;;;9.05;3.80;;;;;;;;;;143727;599;46020;-54
2021/10/11 08:21:41;;;;;;;8.85;4.25;;;;;;;;;;143732;604;45020;-53
2021/10/11 08:24:08;;;;;;;7.28;4.10;;;;;;;;;;143734;576;45021;-55
2021/10/11 08:26:35;;;;;;;8.63;3.80;;;;;;;;;;143730;599;46023;-55
2021/10/11 08:29:03;;;;;;;7.95;3.78;;;;;;;;;;143727;570;46020;-55
2021/10/11 08:31:32;;;;;;;6.68;4.18;;;;;;;;;;143731;587;46012;-53
2021/10/11 08:33:59;;;;;;;7.75;4.10;;;;;;;;;;143733;564;46012;-54
2021/10/11 08:36:26;;;;;;;7.95;3.92;;;;;;;;;;143729;573;46022;-54
2021/10/11 08:38:53;;;;;;;19.85;4.97;;;;;;;;;;143725;625;46021;-53
2021/10/11 08:41:21;;;;;;;8.18;3.60;;;;;;;;;;143727;577;46020;-54
2021/10/11 08:43:48;;;;;;;10.20;4.35;;;;;;;;;;143732;598;46012;-53
2021/10/11 08:46:16;;;;;;;7.68;4.10;;;;;;;;;;143730;567;46022;-54
2021/10/11 08:48:42;;;;;;;6.35;3.42;;;;;;;;;;143727;581;46020;-54
2021/10/11 08:51:10;;;;;;;5.30;2.62;;;;;;;;;;143732;581;45020;-54
2021/10/11 08:53:38;;;;;;;6.40;2.62;;;;;;;;;;143733;694;46020;-54
2021/10/11 08:56:05;;;;;;;5.30;3.08;;;;;;;;;;143729;573;46023;-54
2021/10/11 08:59:01;;;;;;;5.75;2.85;;;;;;;;;;143723;730;48024;-54
2021/10/11 09:01:28;;;;;;;4.62;2.47;;;;;;;;;;143730;687;46012;-53
2021/10/11 09:03:55;;;;;;;6.37;3.35;;;;;;;;;;143733;591;46014;-54
2021/10/11 09:06:22;;;;;;;2.78;1.70;;;;;;;;;;143731;627;46022;-53
2021/10/11 09:08:49;;;;;;;4.62;3.05;;;;;;;;;;143728;566;46021;-54
2021/10/11 09:11:16;;;;;;;5.22;2.42;;;;;;;;;;143727;736;48020;-54
2021/10/11 09:13:46;;;;;;;7.62;3.83;;;;;;;;;;143733;662;46012;-54
2021/10/11 09:16:33;;;;;;;5.55;3.33;;;;;;;;;;143728;581;46022;-54
2021/10/11 09:19:14;;;;;;;3.75;2.25;;;;;;;;;;143728;600;46020;-54
2021/10/11 09:21:42;;;;;;;2.83;1.95;;;;;;;;;;143729;696;46012;-54
2021/10/11 09:24:19;;;;;;;3.75;2.35;;;;;;;;;;143734;587;45021;-54
2021/10/11 09:26:50;;;;;;;3.80;2.25;;;;;;;;;;143728;566;47020;-54
2021/10/11 09:29:34;;;;;;;3.20;2.15;;;;;;;;;;143729;621;46020;-55
2021/10/11 09:32:04;;;;;;;5.93;2.97;;;;;;;;;;143730;585;46012;-55
2021/10/11 09:34:32;;;;;;;6.12;3.58;;;;;;;;;;143731;587;46020;-55
2021/10/11 09:37:10;;;;;;;10.75;4.78;;;;;;;;;;143729;587;46036;-55
2021/10/11 09:39:39;;;;;;;6.15;2.67;;;;;;;;;;143729;742;46020;-55
2021/10/11 09:42:09;;;;;;;5.45;2.15;;;;;;;;;;143728;576;46012;-55
2021/10/11 09:44:36;;;;;;;3.08;1.80;;;;;;;;;;143732;586;46012;-55
2021/10/11 09:47:12;;;;;;;3.62;1.90;;;;;;;;;;143729;600;46023;-56
2021/10/11 09:49:39;;;;;;;2.97;1.95;;;;;;;;;;143728;592;46020;-56
2021/10/11 09:52:06;;;;;;;8.75;3.42;;;;;;;;;;143730;586;45021;-55
2021/10/11 09:54:33;;;;;;;7.57;4.30;;;;;;;;;;143734;687;45021;-55
2021/10/11 09:57:00;;;;;;;5.70;3.25;;;;;;;;;;143731;583;46022;-55
2021/10/11 09:59:29;;;;;;;2.95;2.25;;;;;;;;;;143729;570;46021;-55
2021/10/11 10:01:58;;;;;;;3.40;2.72;;;;;;;;;;143731;581;46012;-55
2021/10/11 10:04:33;;;;;;;3.35;2.50;;;;;;;;;;143732;569;46012;-55
2021/10/11 10:07:03;;;;;;;2.78;2.03;;;;;;;;;;143730;654;46022;-55
2021/10/11 10:09:31;;;;;;;6.80;2.78;;;;;;;;;;143727;577;46021;-54
2021/10/11 10:11:58;;;;;;;4.62;2.05;;;;;;;;;;143730;572;45020;-54
2021/10/11 10:14:26;;;;;;;5.03;3.30;;;;;;;;;;143733;667;46020;-54
2021/10/11 10:16:54;;;;;;;23.87;17.90;;;;;;;;;;143728;703;46023;-54
2021/10/11 10:19:41;;;;;;;17.95;11.88;;;;;;;;;;143727;659;46020;-54
2021/10/11 10:22:15;;;;;;;10.95;6.25;;;;;;;;;;143727;589;46013;-54
2021/10/11 10:24:43;;;;;;;9.60;6.72;;;;;;;;;;143732;726;46012;-54
2021/10/11 10:27:13;;;;;;;5.57;3.83;;;;;;;;;;143727;578;46022;-54
2021/10/11 10:29:42;;;;;;;9.95;6.90;;;;;;;;;;143728;570;46021;-53
2021/10/11 10:32:10;;;;;;;9.43;5.87;;;;;;;;;;143728;659;46020;-54
2021/10/11 10:34:37;;;;;;;3.85;3.00;;;;;;;;;;143732;616;45021;-54
2021/10/11 10:37:08;;;;;;;5.80;4.10;;;;;;;;;;143727;616;46022;-54
2021/10/11 10:39:48;;;;;;;7.50;4.55;;;;;;;;;;143725;594;46020;-54
2021/10/11 10:42:29;;;;;;;7.82;3.87;;;;;;;;;;143726;623;46012;-54
2021/10/11 10:44:58;;;;;;;6.18;3.10;;;;;;;;;;143732;579;45031;-54
2021/10/11 10:47:35;;;;;;;7.22;3.75;;;;;;;;;;143726;617;46023;-54
2021/10/11 10:50:07;;;;;;;5.78;3.75;;;;;;;;;;143726;637;46020;-54
2021/10/11 10:52:34;;;;;;;5.22;3.30;;;;;;;;;;143725;650;46021;-54
2021/10/11 10:55:01;;;;;;;4.95;3.12;;;;;;;;;;143731;580;46020;-54
2021/10/11 10:57:32;;;;;;;5.87;3.90;;;;;;;;;;143727;582;46022;-53
2021/10/11 11:00:03;;;;;;;6.55;4.22;;;;;;;;;;143729;569;45918;-54
2021/10/11 11:02:31;;;;;;;7.18;3.33;;;;;;;;;;143730;592;45020;-54
2021/10/11 11:05:00;;;;;;;9.07;4.82;;;;;;;;;;143731;575;46012;-54
2021/10/11 11:07:35;;;;;;;8.05;3.67;;;;;;;;;;143726;602;46022;-54
2021/10/11 11:10:05;;;;;;;10.32;3.95;;;;;;;;;;143724;569;46020;-54
2021/10/11 11:12:37;;;;;;;10.85;4.35;;;;;;;;;;143729;616;45020;-54
2021/10/11 11:15:07;;;;;;;7.85;3.15;;;;;;;;;;143730;578;46020;-53
2021/10/11 11:17:36;;;;;;;4.30;2.78;;;;;;;;;;143726;627;46022;-53
2021/10/11 11:20:19;;;;;;;4.45;3.08;;;;;;;;;;143726;591;46020;-53
2021/10/11 11:22:47;;;;;;;5.32;2.00;;;;;;;;;;143728;582;46012;-53
2021/10/11 11:25:14;;;;;;;3.55;2.28;;;;;;;;;;143731;623;46020;-53
2021/10/11 11:27:44;;;;;;;4.53;2.72;;;;;;;;;;143726;584;46022;-53
2021/10/11 11:30:15;;;;;;;6.25;2.28;;;;;;;;;;143727;593;46020;-53
2021/10/11 11:32:56;;;;;;;3.25;2.03;;;;;;;;;;143728;589;46012;-53
2021/10/11 11:35:33;;;;;;;6.43;4.10;;;;;;;;;;143732;608;45032;-54
2021/10/11 11:38:02;;;;;;;21.50;14.77;;;;;;;;;;143727;573;46023;-53
2021/10/11 11:40:40;;;;;;;14.07;9.63;;;;;;;;;;143723;583;46917;-53
2021/10/11 11:43:09;;;;;;;7.22;4.68;;;;;;;;;;143729;615;45021;-53
2021/10/11 11:45:47;;;;;;;12.27;7.60;;;;;;;;;;143730;634;46012;-53
2021/10/11 11:48:26;;;;;;;13.05;6.95;;;;;;;;;;143727;619;46022;-54
2021/10/11 11:50:57;;;;;;;11.10;7.82;;;;;;;;;;143725;581;46020;-54
2021/10/11 11:53:26;;;;;;;11.70;7.50;;;;;;;;;;143729;598;46012;-53
2021/10/11 11:55:55;;;;;;;3.78;2.72;;;;;;;;;;143731;564;46020;-54
2021/10/11 11:58:51;;;;;;;8.98;5.32;;;;;;;;;;143728;583;46022;-53
2021/10/11 12:01:27;;;;;;;11.65;5.82;;;;;;;;;;143725;579;46020;-54
2021/10/11 12:03:58;;;;;;;12.48;7.90;;;;;;;;;;143729;563;45020;-53
2021/10/11 12:06:33;;;;;;;8.65;4.50;;;;;;;;;;143730;565;46021;-53
2021/10/11 12:09:01;;;;;;;6.75;2.83;;;;;;;;;;143727;565;46023;-53
2021/10/11 12:11:27;;;;;;;4.32;2.22;;;;;;;;;;143727;585;46020;-54
2021/10/11 12:14:00;;;;;;;9.60;4.80;;;;;;;;;;143728;578;45021;-53
2021/10/11 12:16:28;;;;;;;2.67;1.92;;;;;;;;;;143730;577;46012;-54
2021/10/11 12:18:57;;;;;;;6.03;3.90;;;;;;;;;;143728;629;46022;-53
2021/10/11 12:21:51;;;;;;;3.47;2.50;;;;;;;;;;143726;587;46021;-54
2021/10/11 12:24:19;;;;;;;4.18;1.87;;;;;;;;;;143727;585;46012;-54
2021/10/11 12:27:06;;;;;;;7.43;4.85;;;;;;;;;;143732;658;46020;-53
2021/10/11 12:29:37;;;;;;;10.90;5.32;;;;;;;;;;143727;601;46025;-53
2021/10/11 12:32:09;;;;;;;4.78;3.22;;;;;;;;;;143725;582;46020;-54
2021/10/11 12:34:41;;;;;;;7.12;4.45;;;;;;;;;;143727;570;45021;-53
2021/10/11 12:37:16;;;;;;;4.95;2.00;;;;;;;;;;143733;739;45021;-53
2021/10/11 12:39:45;;;;;;;;;;;;;;;;;;143732;981;46022;-53
2021/10/11 12:42:18;;;;;;;4.20;2.55;;;;;;;;;;143737;618;46020;-53
2021/10/11 12:44:48;;;;;;;3.55;2.58;;;;;;;;;;143730;566;46012;-54
2021/10/11 12:47:34;;;;;;;5.50;4.15;;;;;;;;;;143731;569;46020;-54
2021/10/11 12:50:06;;;;;;;4.07;2.75;;;;;;;;;;143727;577;46022;-53
2021/10/11 12:53:03;;;;;;;4.20;2.90;;;;;;;;;;143725;598;46021;-54
2021/10/11 12:55:31;;;;;;;4.70;2.10;;;;;;;;;;143730;575;45022;-53
2021/10/11 12:58:06;;;;;;;3.90;1.67;;;;;;;;;;143731;576;46020;-53
2021/10/11 13:00:34;;;;;;;5.22;1.98;;;;;;;;;;143726;569;46023;-54
2021/10/11 13:03:02;;;;;;;6.15;2.55;;;;;;;;;;143728;606;46020;-53
2021/10/11 13:05:29;;;;;;;5.47;1.90;;;;;;;;;;143727;628;46013;-53
2021/10/11 13:07:56;;;;;;;5.12;1.87;;;;;;;;;;143731;619;46021;-53
2021/10/11 13:10:23;;;;;;;2.83;1.67;;;;;;;;;;143727;615;46020;-54
2021/10/11 13:12:50;;;;;;;4.53;2.08;;;;;;;;;;143727;571;46021;-54
2021/10/11 13:15:17;;;;;;;3.87;1.95;;;;;;;;;;143728;576;46012;-54
2021/10/11 13:17:44;;;;;;;4.80;1.75;;;;;;;;;;143733;605;46020;-54
2021/10/11 13:20:11;;;;;;;3.12;1.87;;;;;;;;;;143727;570;46022;-53
2021/10/11 13:22:38;;;;;;;5.35;2.72;;;;;;;;;;143725;620;46020;-54
2021/10/11 13:25:05;;;;;;;3.25;2.05;;;;;;;;;;143731;580;45020;-54
2021/10/11 13:27:33;;;;;;;4.80;2.03;;;;;;;;;;143733;577;45021;-54
2021/10/11 13:36:17;;;;;;;8.00;4.10;;;;;;;;;;143729;597;45021;-53
2021/10/11 14:27:57;;;;;;;3.85;1.80;;;;;;;;;;143728;625;46012;-54
2021/10/11 14:30:41;;;;;;;1.70;1.33;;;;;;;;;;143728;590;46012;-53
2021/10/11 15:58:30;;;;;;;7.32;2.40;;;;;;;;;;143755;572;45023;-53
2021/10/11 16:01:13;;;;;;;4.72;2.58;;;;;;;;;;143757;759;45010;-53
2021/10/11 16:06:28;;;;;;;5.37;2.92;;;;;;;;;;143755;566;45917;-53
2021/10/11 16:08:56;;;;;;;5.45;2.83;;;;;;;;;;143756;606;45012;-53
2021/10/11 16:11:23;;;;;;;7.15;3.08;;;;;;;;;;143757;768;45020;-53
2021/10/11 16:13:50;;;;;;;4.30;2.62;;;;;;;;;;143756;617;45023;-53
2021/10/11 16:16:17;;;;;;;6.90;3.42;;;;;;;;;;143753;709;45916;-53
2021/10/11 16:18:44;;;;;;;4.53;2.53;;;;;;;;;;143757;593;45013;-53
2021/10/11 16:21:12;;;;;;;3.37;2.50;;;;;;;;;;143759;892;45010;-53
2021/10/11 16:23:41;;;;;;;6.15;2.87;;;;;;;;;;143757;565;45020;-53
2021/10/11 16:26:09;;;;;;;5.87;2.72;;;;;;;;;;143755;617;45917;-54
2021/10/11 16:28:37;;;;;;;9.23;3.00;;;;;;;;;;143756;677;45012;-53
2021/10/11 16:31:10;;;;;;;8.50;3.37;;;;;;;;;;143760;564;45020;-53
2021/10/11 16:33:37;;;;;;;3.97;2.62;;;;;;;;;;143758;565;45021;-53
2021/10/11 16:36:14;;;;;;;6.72;2.33;;;;;;;;;;143726;569;46021;-54
2021/10/11 16:38:42;;;;;;;7.60;3.00;;;;;;;;;;143731;570;45021;-53
2021/10/11 16:41:12;;;;;;;6.82;3.12;;;;;;;;;;143732;570;46020;-53
2021/10/11 16:43:40;;;;;;;6.12;2.90;;;;;;;;;;143727;683;47020;-53
2021/10/11 16:46:09;;;;;;;3.95;2.78;;;;;;;;;;143725;613;46020;-53
2021/10/11 16:48:37;;;;;;;6.10;2.37;;;;;;;;;;143729;638;46012;-53
2021/10/11 16:51:04;;;;;;;7.12;3.22;;;;;;;;;;143733;603;45021;-54
2021/10/11 16:54:11;;;;;;;6.18;2.72;;;;;;;;;;143728;606;46022;-53
2021/10/11 16:56:21;;;;;;;7.25;3.53;;;;;;;;;;143730;708;45918;-53
2021/10/11 16:58:48;;;;;;;4.93;2.67;;;;;;;;;;143731;790;45021;-54
2021/10/11 17:01:15;;;;;;;4.95;2.60;;;;;;;;;;143733;569;45020;-54
2021/10/11 17:03:42;;;;;;;4.07;2.90;;;;;;;;;;143727;616;46022;-54
2021/10/11 17:06:09;;;;;;;5.95;3.05;;;;;;;;;;143724;813;46021;-54
2021/10/11 17:08:36;;;;;;;9.65;3.12;;;;;;;;;;143726;597;46012;-53
2021/10/11 17:11:03;;;;;;;9.48;3.42;;;;;;;;;;143730;720;46010;-54
2021/10/11 17:13:30;;;;;;;7.55;2.87;;;;;;;;;;143725;564;47023;-54